Time;durP1;ratioP1;P1;durP2;ratioP2;P2;SDS_P1;SDS_P2;PMS_P1;PMS_P2;Temp;Humidity;BMP_temperature;BMP_pressure;BME280_temperature;BME280_humidity;BME280_pressure;Samples;Min_cycle;Max_cycle;Signal;HPM_P1;HPM_P2
2023/03/25 00:00:17;;;;;;;;;;;;;;;;;;5126579;27;20311;-48
2023/03/25 00:02:46;;;;;;;;;;;;;;;;;;5125111;27;19912;-46
2023/03/25 00:05:13;;;;;;;;;;;;;;;;;;5128650;27;19911;-47
2023/03/25 00:07:40;;;;;;;;;;;;;;;;;;5119398;27;19911;-48
2023/03/25 00:10:06;;;;;;;;;;;;;;;;;;5123457;27;20409;-47
2023/03/25 00:12:32;;;;;;;;;;;;;;;;;;5126389;27;19919;-47
2023/03/25 00:14:58;;;;;;;;;;;;;;;;;;5127189;27;19921;-47
2023/03/25 00:17:30;;;;;;;;;;;;;;;;;;5127252;27;20228;-49
2023/03/25 00:19:56;;;;;;;;;;;;;;;;;;5127374;27;20356;-50
2023/03/25 00:22:22;;;;;;;;;;;;;;;;;;5126897;27;20018;-48
2023/03/25 00:24:48;;;;;;;;;;;;;;;;;;5128048;27;19998;-49
2023/03/25 00:27:16;;;;;;;;;;;;;;;;;;5126777;27;20328;-51
2023/03/25 00:29:42;;;;;;;;;;;;;;;;;;5108699;27;19915;-47
2023/03/25 00:32:08;;;;;;;;;;;;;;;;;;5127010;27;19994;-47
2023/03/25 00:34:34;;;;;;;;;;;;;;;;;;5127203;27;20437;-47
2023/03/25 00:37:01;;;;;;;;;;;;;;;;;;5107964;27;19946;-48
2023/03/25 00:39:27;;;;;;;;;;;;;;;;;;5126811;27;19911;-51
2023/03/25 00:41:53;;;;;;;;;;;;;;;;;;5108541;27;19934;-47
2023/03/25 00:44:21;;;;;;;;;;;;;;;;;;5127214;27;19907;-47
2023/03/25 00:46:48;;;;;;;;;;;;;;;;;;5126639;27;19908;-47
2023/03/25 00:49:14;;;;;;;;;;;;;;;;;;5126744;27;20417;-46
2023/03/25 00:51:40;;;;;;;;;;;;;;;;;;5107730;27;19922;-47
2023/03/25 00:54:07;;;;;;;;;;;;;;;;;;5126955;27;20390;-47
2023/03/25 00:56:34;;;;;;;;;;;;;;;;;;5126621;27;20330;-47
2023/03/25 00:59:00;;;;;;;;;;;;;;;;;;5108254;27;19933;-47
2023/03/25 01:01:26;;;;;;;;;;;;;;;;;;5125567;27;19954;-47
2023/03/25 01:03:56;;;;;;;;;;;;;;;;;;5126678;27;19916;-48
2023/03/25 06:13:40;;;;;;;;;;;;;;;;;;5113072;28;19923;-48
2023/03/25 06:16:07;;;;;;;;;;;;;;;;;;5127267;28;19919;-50
2023/03/25 06:18:34;;;;;;;;;;;;;;;;;;5128199;27;19958;-49
2023/03/25 06:21:00;;;;;;;;;;;;;;;;;;5128240;27;19911;-50
2023/03/25 06:23:26;;;;;;;;;;;;;;;;;;5128222;28;19948;-47
2023/03/25 06:25:52;;;;;;;;;;;;;;;;;;5127866;27;19951;-48
2023/03/25 06:28:18;;;;;;;;;;;;;;;;;;5128205;28;19965;-48
2023/03/25 06:30:44;;;;;;;;;;;;;;;;;;5128059;28;20120;-47
2023/03/25 06:33:12;;;;;;;;;;;;;;;;;;5128060;27;20401;-47
2023/03/25 06:35:38;;;;;;;;;;;;;;;;;;5128183;27;20263;-49
2023/03/25 06:38:04;;;;;;;;;;;;;;;;;;5128169;28;19984;-47
2023/03/25 06:40:30;;;;;;;;;;;;;;;;;;5127451;28;19912;-47
2023/03/25 06:42:56;;;;;;;;;;;;;;;;;;5127905;28;20279;-48
2023/03/25 06:45:23;;;;;;;;;;;;;;;;;;5127990;27;19926;-49
2023/03/25 06:47:49;;;;;;;;;;;;;;;;;;5128130;28;19914;-47
2023/03/25 06:50:14;;;;;;;;;;;;;;;;;;5127870;27;20006;-49
2023/03/25 06:52:40;;;;;;;;;;;;;;;;;;5127765;28;20390;-47
2023/03/25 06:55:06;;;;;;;;;;;;;;;;;;5127693;28;19922;-49
2023/03/25 06:57:32;;;;;;;;;;;;;;;;;;5128284;28;20107;-47
2023/03/25 06:59:58;;;;;;;;;;;;;;;;;;5129543;27;19911;-48
2023/03/25 07:02:24;;;;;;;;;;;;;;;;;;5131316;27;19919;-49
2023/03/25 07:04:50;;;;;;;;;;;;;;;;;;5113425;27;19947;-49
2023/03/25 07:07:16;;;;;;;;;;;;;;;;;;5132869;27;20017;-49
2023/03/25 07:09:42;;;;;;;;;;;;;;;;;;5132898;27;20001;-48
2023/03/25 07:12:08;;;;;;;;;;;;;;;;;;5132922;27;20024;-50
2023/03/25 07:14:34;;;;;;;;;;;;;;;;;;5132842;27;19977;-48
2023/03/25 07:17:00;;;;;;;;;;;;;;;;;;5114291;27;19919;-48
2023/03/25 07:19:26;;;;;;;;;;;;;;;;;;5132815;27;19911;-47
2023/03/25 07:21:52;;;;;;;;;;;;;;;;;;5132616;27;19915;-48
2023/03/25 07:24:17;;;;;;;;;;;;;;;;;;5132340;27;19918;-48
2023/03/25 07:26:43;;;;;;;;;;;;;;;;;;5132042;27;19938;-50
2023/03/25 07:29:09;;;;;;;;;;;;;;;;;;5132055;27;19915;-48
2023/03/25 07:31:35;;;;;;;;;;;;;;;;;;5132665;27;20052;-51
2023/03/25 07:34:01;;;;;;;;;;;;;;;;;;5133035;27;19907;-48
2023/03/25 07:36:27;;;;;;;;;;;;;;;;;;5132489;27;19908;-48
2023/03/25 07:38:53;;;;;;;;;;;;;;;;;;5132829;27;20441;-50
2023/03/25 07:41:19;;;;;;;;;;;;;;;;;;5132253;27;19907;-48
2023/03/25 07:43:45;;;;;;;;;;;;;;;;;;5132619;27;19919;-47
2023/03/25 07:46:11;;;;;;;;;;;;;;;;;;5132366;27;19930;-48
2023/03/25 07:48:37;;;;;;;;;;;;;;;;;;5132326;27;19959;-47
2023/03/25 07:51:03;;;;;;;;;;;;;;;;;;5132027;27;19927;-48
2023/03/25 07:53:29;;;;;;;;;;;;;;;;;;5132073;27;19915;-48
2023/03/25 07:55:55;;;;;;;;;;;;;;;;;;5132068;27;19945;-50
2023/03/25 07:58:21;;;;;;;;;;;;;;;;;;5131942;27;19912;-51
2023/03/25 08:00:47;;;;;;;;;;;;;;;;;;5131181;27;20006;-47
2023/03/25 08:03:13;;;;;;;;;;;;;;;;;;5118975;27;20010;-50
2023/03/25 08:05:39;;;;;;;;;;;;;;;;;;5130935;27;19911;-51
2023/03/25 08:08:05;;;;;;;;;;;;;;;;;;5131612;27;19911;-49
2023/03/25 08:10:31;;;;;;;;;;;;;;;;;;5131129;27;19915;-48
2023/03/25 08:12:57;;;;;;;;;;;;;;;;;;5130951;27;19912;-50
2023/03/25 08:15:23;;;;;;;;;;;;;;;;;;5131581;27;19918;-50
2023/03/25 08:17:49;;;;;;;;;;;;;;;;;;5132037;27;19994;-48
2023/03/25 08:20:15;;;;;;;;;;;;;;;;;;5131064;27;20559;-49
2023/03/25 08:22:41;;;;;;;;;;;;;;;;;;5131493;27;19968;-48
2023/03/25 08:25:07;;;;;;;;;;;;;;;;;;5130525;27;19911;-48
2023/03/25 08:27:33;;;;;;;;;;;;;;;;;;5131324;27;19911;-50
2023/03/25 08:30:00;;;;;;;;;;;;;;;;;;5131414;27;19919;-51
2023/03/25 08:32:26;;;;;;;;;;;;;;;;;;5130683;27;19912;-50
2023/03/25 08:34:53;;;;;;;;;;;;;;;;;;5130279;27;19907;-49
2023/03/25 08:37:20;;;;;;;;;;;;;;;;;;5129703;27;19933;-51
2023/03/25 08:39:48;;;;;;;;;;;;;;;;;;5129574;27;20432;-51
2023/03/25 08:42:15;;;;;;;;;;;;;;;;;;5129622;27;20408;-48
2023/03/25 08:44:41;;;;;;;;;;;;;;;;;;5129960;27;20453;-48
2023/03/25 08:47:07;;;;;;;;;;;;;;;;;;5129962;27;19994;-47
2023/03/25 08:49:33;;;;;;;;;;;;;;;;;;5129991;27;20010;-48
2023/03/25 08:52:00;;;;;;;;;;;;;;;;;;5129067;27;19919;-49
2023/03/25 08:54:26;;;;;;;;;;;;;;;;;;5129327;27;19962;-50
2023/03/25 08:56:53;;;;;;;;;;;;;;;;;;5129347;27;19959;-48
2023/03/25 08:59:19;;;;;;;;;;;;;;;;;;5129489;27;19998;-48
2023/03/25 09:01:46;;;;;;;;;;;;;;;;;;5129203;27;20023;-49
2023/03/25 09:04:12;;;;;;;;;;;;;;;;;;5129571;27;19911;-48
2023/03/25 09:06:38;;;;;;;;;;;;;;;;;;5128577;27;19918;-48
2023/03/25 09:09:05;;;;;;;;;;;;;;;;;;5129392;27;20382;-47
2023/03/25 09:11:30;;;;;;;;;;;;;;;;;;5129753;27;19947;-48
2023/03/25 09:13:56;;;;;;;;;;;;;;;;;;5129229;27;20424;-48
2023/03/25 09:16:22;;;;;;;;;;;;;;;;;;5128559;27;19968;-48
2023/03/25 09:18:48;;;;;;;;;;;;;;;;;;5129289;27;19919;-49
2023/03/25 09:21:14;;;;;;;;;;;;;;;;;;5130071;27;19941;-50
2023/03/25 09:23:40;;;;;;;;;;;;;;;;;;5129872;27;19972;-47
2023/03/25 09:26:06;;;;;;;;;;;;;;;;;;5130220;27;20367;-51
2023/03/25 09:28:32;;;;;;;;;;;;;;;;;;5129417;27;19914;-47
2023/03/25 09:30:58;;;;;;;;;;;;;;;;;;5128092;27;19919;-47
2023/03/25 09:33:26;;;;;;;;;;;;;;;;;;5128992;27;19911;-48
2023/03/25 09:35:52;;;;;;;;;;;;;;;;;;5129240;27;19949;-47
2023/03/25 09:38:19;;;;;;;;;;;;;;;;;;5128293;27;20386;-49
2023/03/25 09:40:45;;;;;;;;;;;;;;;;;;5123682;27;19918;-49
2023/03/25 09:43:11;;;;;;;;;;;;;;;;;;5123990;27;19919;-49
2023/03/25 09:45:36;;;;;;;;;;;;;;;;;;5128321;27;19954;-50
2023/03/25 09:48:02;;;;;;;;;;;;;;;;;;5126176;27;19908;-48
2023/03/25 09:50:28;;;;;;;;;;;;;;;;;;5128657;27;19911;-48
2023/03/25 09:52:54;;;;;;;;;;;;;;;;;;5127520;27;19915;-47
2023/03/25 09:55:23;;;;;;;;;;;;;;;;;;5129359;27;19919;-49
2023/03/25 09:57:49;;;;;;;;;;;;;;;;;;5128318;27;19908;-49
2023/03/25 10:00:15;;;;;;;;;;;;;;;;;;5128531;27;20293;-46
2023/03/25 10:02:41;;;;;;;;;;;;;;;;;;5126842;27;20091;-47
2023/03/25 10:05:07;;;;;;;;;;;;;;;;;;5128919;27;20642;-48
2023/03/25 10:07:33;;;;;;;;;;;;;;;;;;5128401;27;19908;-48
2023/03/25 10:09:59;;;;;;;;;;;;;;;;;;5127928;27;19915;-48
2023/03/25 10:12:25;;;;;;;;;;;;;;;;;;5127801;27;19911;-48
2023/03/25 10:14:51;;;;;;;;;;;;;;;;;;5128616;28;19912;-48
2023/03/25 10:17:17;;;;;;;;;;;;;;;;;;5128053;28;19920;-49
2023/03/25 10:19:43;;;;;;;;;;;;;;;;;;5127532;28;19920;-46
2023/03/25 10:22:08;;;;;;;;;;;;;;;;;;5126614;28;19927;-49
2023/03/25 10:24:35;;;;;;;;;;;;;;;;;;5128978;28;19926;-49
2023/03/25 10:27:01;;;;;;;;;;;;;;;;;;5128010;28;20017;-47
2023/03/25 10:29:27;;;;;;;;;;;;;;;;;;5129046;28;20063;-49
2023/03/25 10:31:53;;;;;;;;;;;;;;;;;;5128028;28;20578;-49
2023/03/25 10:34:19;;;;;;;;;;;;;;;;;;5131732;27;19911;-52
2023/03/25 10:36:47;;;;;;;;;;;;;;;;;;5132705;27;20009;-47
2023/03/25 10:39:13;;;;;;;;;;;;;;;;;;5132563;27;20007;-47
2023/03/25 10:41:42;;;;;;;;;;;;;;;;;;5131457;27;20011;-50
2023/03/25 10:44:08;;;;;;;;;;;;;;;;;;5132272;27;19958;-47
2023/03/25 10:46:36;;;;;;;;;;;;;;;;;;5131336;27;20609;-47
2023/03/25 10:49:01;;;;;;;;;;;;;;;;;;5130841;27;19922;-47
2023/03/25 10:51:27;;;;;;;;;;;;;;;;;;5130879;27;20293;-48
2023/03/25 10:53:53;;;;;;;;;;;;;;;;;;5130142;27;19911;-47
2023/03/25 10:56:19;;;;;;;;;;;;;;;;;;5130904;27;19907;-47
2023/03/25 10:58:45;;;;;;;;;;;;;;;;;;5129292;27;19994;-50
2023/03/25 11:01:11;;;;;;;;;;;;;;;;;;5129174;27;19911;-47
2023/03/25 11:03:37;;;;;;;;;;;;;;;;;;5131741;27;20342;-47
2023/03/25 11:06:03;;;;;;;;;;;;;;;;;;5132795;27;19915;-49
2023/03/25 11:08:29;;;;;;;;;;;;;;;;;;5131348;27;19913;-48
2023/03/25 11:10:56;;;;;;;;;;;;;;;;;;5113522;27;19927;-50
2023/03/25 11:13:23;;;;;;;;;;;;;;;;;;5129563;27;20402;-48
2023/03/25 11:15:49;;;;;;;;;;;;;;;;;;5129403;27;19922;-48
2023/03/25 11:18:15;;;;;;;;;;;;;;;;;;5109065;28;19911;-47
2023/03/25 11:20:41;;;;;;;;;;;;;;;;;;5127944;27;19919;-49
2023/03/25 11:23:07;;;;;;;;;;;;;;;;;;5108861;28;19911;-48
2023/03/25 11:25:35;;;;;;;;;;;;;;;;;;5127889;27;20451;-48
2023/03/25 11:28:01;;;;;;;;;;;;;;;;;;5109030;28;19907;-49
2023/03/25 11:30:27;;;;;;;;;;;;;;;;;;5126141;27;20006;-51
2023/03/25 11:32:53;;;;;;;;;;;;;;;;;;5087593;28;19908;-49
2023/03/25 11:35:18;;;;;;;;;;;;;;;;;;5118426;27;19911;-48
2023/03/25 11:37:45;;;;;;;;;;;;;;;;;;5108437;28;19916;-47
2023/03/25 11:40:11;;;;;;;;;;;;;;;;;;5111134;27;19912;-48
2023/03/25 11:42:37;;;;;;;;;;;;;;;;;;5107927;28;19954;-50
2023/03/25 11:45:03;;;;;;;;;;;;;;;;;;5121403;27;19962;-47
2023/03/25 11:47:30;;;;;;;;;;;;;;;;;;5106774;27;19934;-51
2023/03/25 11:49:56;;;;;;;;;;;;;;;;;;5116430;27;20007;-47
2023/03/25 11:52:22;;;;;;;;;;;;;;;;;;5114063;27;20381;-47
2023/03/25 11:54:47;;;;;;;;;;;;;;;;;;5118189;27;19915;-47
2023/03/25 11:57:13;;;;;;;;;;;;;;;;;;5111783;27;20302;-48
2023/03/25 11:59:40;;;;;;;;;;;;;;;;;;5112787;27;19911;-47
2023/03/25 12:02:06;;;;;;;;;;;;;;;;;;5110663;27;21327;-48
2023/03/25 12:04:33;;;;;;;;;;;;;;;;;;5118669;27;19915;-46
2023/03/25 12:06:59;;;;;;;;;;;;;;;;;;5103657;27;19919;-47
2023/03/25 12:09:25;;;;;;;;;;;;;;;;;;5112706;27;20566;-46
2023/03/25 12:11:51;;;;;;;;;;;;;;;;;;5120359;27;19911;-49
2023/03/25 12:14:17;;;;;;;;;;;;;;;;;;5102918;27;19927;-47
2023/03/25 12:16:44;;;;;;;;;;;;;;;;;;5126281;27;19972;-46
2023/03/25 12:19:11;;;;;;;;;;;;;;;;;;5130373;27;20285;-48
2023/03/25 12:21:36;;;;;;;;;;;;;;;;;;5130233;27;20374;-48
2023/03/25 12:24:02;;;;;;;;;;;;;;;;;;5130126;27;19915;-47
2023/03/25 12:26:28;;;;;;;;;;;;;;;;;;5130729;27;19977;-47
2023/03/25 12:28:54;;;;;;;;;;;;;;;;;;5129538;27;19916;-46
2023/03/25 12:31:21;;;;;;;;;;;;;;;;;;5129352;27;19939;-48
2023/03/25 12:33:47;;;;;;;;;;;;;;;;;;5129819;27;20042;-50
2023/03/25 12:36:13;;;;;;;;;;;;;;;;;;5129125;27;19915;-47
2023/03/25 12:38:39;;;;;;;;;;;;;;;;;;5129476;27;19980;-48
2023/03/25 12:41:05;;;;;;;;;;;;;;;;;;5131513;27;19955;-47
2023/03/25 12:43:30;;;;;;;;;;;;;;;;;;5129445;27;19958;-46
2023/03/25 12:45:56;;;;;;;;;;;;;;;;;;5129589;27;19919;-48
2023/03/25 12:48:22;;;;;;;;;;;;;;;;;;5129298;27;19908;-50
2023/03/25 12:50:48;;;;;;;;;;;;;;;;;;5130355;27;19918;-47
2023/03/25 12:53:14;;;;;;;;;;;;;;;;;;5128373;27;19915;-47
2023/03/25 12:55:40;;;;;;;;;;;;;;;;;;5129850;27;19915;-48
2023/03/25 12:58:06;;;;;;;;;;;;;;;;;;5127886;27;19979;-48
2023/03/25 13:00:32;;;;;;;;;;;;;;;;;;5126228;27;19998;-46
2023/03/25 13:02:59;;;;;;;;;;;;;;;;;;5127845;27;20739;-48
2023/03/25 13:05:25;;;;;;;;;;;;;;;;;;5135871;27;19938;-48
2023/03/25 13:07:51;;;;;;;;;;;;;;;;;;5128115;27;19919;-48
2023/03/25 13:10:17;;;;;;;;;;;;;;;;;;5129508;27;19911;-47
2023/03/25 13:12:43;;;;;;;;;;;;;;;;;;5122890;27;19915;-48
2023/03/25 13:15:09;;;;;;;;;;;;;;;;;;5128560;27;19915;-48
2023/03/25 13:17:42;;;;;;;;;;;;;;;;;;5079453;28;19920;-47
2023/03/25 13:20:09;;;;;;;;;;;;;;;;;;5071971;28;20323;-46
2023/03/25 13:22:35;;;;;;;;;;;;;;;;;;5062049;28;19917;-45
2023/03/25 13:25:02;;;;;;;;;;;;;;;;;;5062717;28;19920;-48
2023/03/25 13:27:27;;;;;;;;;;;;;;;;;;5061442;28;20273;-46
2023/03/25 13:29:53;;;;;;;;;;;;;;;;;;5064260;28;20008;-48
2023/03/25 13:32:19;;;;;;;;;;;;;;;;;;5065710;28;19912;-45
2023/03/25 13:34:46;;;;;;;;;;;;;;;;;;5066275;28;19982;-45
2023/03/25 13:37:12;;;;;;;;;;;;;;;;;;5070724;28;19919;-45
2023/03/25 13:39:38;;;;;;;;;;;;;;;;;;5064999;28;20027;-49
2023/03/25 13:42:04;;;;;;;;;;;;;;;;;;5063762;28;20011;-49
2023/03/25 13:44:30;;;;;;;;;;;;;;;;;;5064788;28;19920;-46
2023/03/25 13:46:56;;;;;;;;;;;;;;;;;;5064363;28;19913;-48
2023/03/25 13:49:22;;;;;;;;;;;;;;;;;;5065022;28;19934;-48
2023/03/25 13:51:48;;;;;;;;;;;;;;;;;;5062873;28;19923;-46
2023/03/25 13:54:14;;;;;;;;;;;;;;;;;;5064211;28;19943;-48
2023/03/25 13:56:41;;;;;;;;;;;;;;;;;;5058742;28;20015;-47
2023/03/25 13:59:07;;;;;;;;;;;;;;;;;;5045917;28;19999;-46
2023/03/25 14:01:33;;;;;;;;;;;;;;;;;;5065306;28;20007;-45
2023/03/25 14:03:59;;;;;;;;;;;;;;;;;;5064821;28;19935;-45
2023/03/25 14:06:25;;;;;;;;;;;;;;;;;;5064504;28;20380;-45
2023/03/25 14:08:50;;;;;;;;;;;;;;;;;;5065063;28;19995;-44
2023/03/25 14:11:16;;;;;;;;;;;;;;;;;;5063043;28;19932;-45
2023/03/25 14:13:42;;;;;;;;;;;;;;;;;;5045263;28;19909;-48
2023/03/25 14:16:08;;;;;;;;;;;;;;;;;;5062629;28;20011;-47
2023/03/25 14:18:34;;;;;;;;;;;;;;;;;;5063298;28;19986;-46
2023/03/25 14:21:00;;;;;;;;;;;;;;;;;;5063229;28;20392;-46
2023/03/25 14:23:26;;;;;;;;;;;;;;;;;;5062863;28;19959;-51
2023/03/25 14:25:52;;;;;;;;;;;;;;;;;;5063092;28;20385;-48
2023/03/25 14:28:18;;;;;;;;;;;;;;;;;;5054364;28;19909;-49
2023/03/25 14:30:44;;;;;;;;;;;;;;;;;;5050781;28;19935;-48
2023/03/25 14:33:11;;;;;;;;;;;;;;;;;;5049953;28;19924;-50
2023/03/25 14:35:37;;;;;;;;;;;;;;;;;;5049626;28;20011;-48
2023/03/25 14:38:03;;;;;;;;;;;;;;;;;;5049893;28;19996;-47
2023/03/25 14:40:29;;;;;;;;;;;;;;;;;;5048026;28;19970;-48
2023/03/25 14:42:56;;;;;;;;;;;;;;;;;;5049188;28;19917;-48
2023/03/25 14:45:23;;;;;;;;;;;;;;;;;;5049747;28;19983;-48
2023/03/25 14:47:49;;;;;;;;;;;;;;;;;;5049701;28;19935;-48
2023/03/25 14:50:15;;;;;;;;;;;;;;;;;;5049702;28;20640;-49
2023/03/25 14:52:42;;;;;;;;;;;;;;;;;;5049884;28;19913;-50
2023/03/25 14:55:08;;;;;;;;;;;;;;;;;;5049135;28;19909;-50
2023/03/25 14:57:34;;;;;;;;;;;;;;;;;;5049108;28;20406;-47
2023/03/25 15:00:00;;;;;;;;;;;;;;;;;;5048415;28;19974;-47
2023/03/25 15:02:27;;;;;;;;;;;;;;;;;;5029897;28;19917;-49
2023/03/25 15:04:53;;;;;;;;;;;;;;;;;;5029479;28;19917;-47
2023/03/25 15:07:19;;;;;;;;;;;;;;;;;;5029582;28;19909;-47
2023/03/25 15:09:45;;;;;;;;;;;;;;;;;;5049688;28;19924;-48
2023/03/25 15:12:11;;;;;;;;;;;;;;;;;;5049530;28;20291;-46
2023/03/25 15:14:37;;;;;;;;;;;;;;;;;;5049299;28;19909;-48
2023/03/25 15:17:04;;;;;;;;;;;;;;;;;;5048892;28;19917;-48
2023/03/25 15:19:30;;;;;;;;;;;;;;;;;;5048719;28;19909;-47
2023/03/25 15:21:56;;;;;;;;;;;;;;;;;;5048932;28;19920;-47
2023/03/25 15:24:22;;;;;;;;;;;;;;;;;;5048850;28;19935;-48
2023/03/25 15:26:48;;;;;;;;;;;;;;;;;;5047838;28;19976;-46
2023/03/25 15:29:13;;;;;;;;;;;;;;;;;;5049592;28;20011;-47
2023/03/25 15:31:39;;;;;;;;;;;;;;;;;;5048888;28;19975;-46
2023/03/25 15:34:05;;;;;;;;;;;;;;;;;;5048876;28;19913;-49
2023/03/25 15:36:31;;;;;;;;;;;;;;;;;;5048519;28;19921;-48
2023/03/25 15:38:57;;;;;;;;;;;;;;;;;;5047717;28;19912;-47
2023/03/25 15:41:23;;;;;;;;;;;;;;;;;;5043376;28;19919;-47
2023/03/25 15:43:51;;;;;;;;;;;;;;;;;;5048420;28;19958;-47
2023/03/25 15:46:17;;;;;;;;;;;;;;;;;;5048548;28;19913;-47
2023/03/25 15:48:44;;;;;;;;;;;;;;;;;;5049246;28;19908;-47
2023/03/25 15:51:10;;;;;;;;;;;;;;;;;;5047878;28;19913;-49
2023/03/25 15:53:36;;;;;;;;;;;;;;;;;;5034584;28;20607;-46
2023/03/25 15:56:02;;;;;;;;;;;;;;;;;;5034671;28;19921;-48
2023/03/25 15:58:28;;;;;;;;;;;;;;;;;;5048159;28;19909;-48
2023/03/25 16:00:54;;;;;;;;;;;;;;;;;;5036591;28;19913;-48
2023/03/25 16:03:20;;;;;;;;;;;;;;;;;;5027903;28;19913;-49
2023/03/25 16:05:46;;;;;;;;;;;;;;;;;;5028002;28;19915;-47
2023/03/25 16:08:12;;;;;;;;;;;;;;;;;;5033976;28;20007;-46
2023/03/25 16:10:40;;;;;;;;;;;;;;;;;;5047456;28;19943;-47
2023/03/25 16:13:06;;;;;;;;;;;;;;;;;;5044968;28;19971;-46
2023/03/25 16:15:32;;;;;;;;;;;;;;;;;;5046120;28;19974;-47
2023/03/25 16:17:57;;;;;;;;;;;;;;;;;;5047111;28;19909;-47
2023/03/25 16:20:23;;;;;;;;;;;;;;;;;;5045899;28;19909;-47
2023/03/25 16:22:49;;;;;;;;;;;;;;;;;;5046403;28;20324;-48
2023/03/25 16:25:15;;;;;;;;;;;;;;;;;;5045994;28;21588;-46
2023/03/25 16:27:41;;;;;;;;;;;;;;;;;;5046258;28;19913;-47
2023/03/25 16:30:07;;;;;;;;;;;;;;;;;;5046334;28;20346;-47
2023/03/25 16:32:33;;;;;;;;;;;;;;;;;;5046112;28;20015;-48
2023/03/25 16:34:59;;;;;;;;;;;;;;;;;;5045793;28;20407;-47
2023/03/25 16:37:26;;;;;;;;;;;;;;;;;;5046287;28;19942;-47
2023/03/25 16:39:52;;;;;;;;;;;;;;;;;;5045988;28;20004;-47
2023/03/25 16:42:18;;;;;;;;;;;;;;;;;;5045869;28;19916;-49
2023/03/25 16:44:44;;;;;;;;;;;;;;;;;;5045937;28;19913;-48
2023/03/25 16:47:09;;;;;;;;;;;;;;;;;;5045739;28;20388;-47
2023/03/25 16:49:38;;;;;;;;;;;;;;;;;;5045575;28;19955;-47
2023/03/25 16:52:04;;;;;;;;;;;;;;;;;;5045615;28;19913;-49
2023/03/25 16:54:30;;;;;;;;;;;;;;;;;;5045862;28;19916;-47
2023/03/25 16:56:57;;;;;;;;;;;;;;;;;;5046460;28;20355;-51
2023/03/25 16:59:23;;;;;;;;;;;;;;;;;;5045788;28;20404;-46
2023/03/25 17:01:49;;;;;;;;;;;;;;;;;;5044562;28;19917;-46
2023/03/25 17:04:15;;;;;;;;;;;;;;;;;;5045425;28;19912;-48
2023/03/25 17:06:42;;;;;;;;;;;;;;;;;;5045924;28;19966;-47
2023/03/25 17:09:08;;;;;;;;;;;;;;;;;;5045683;28;19915;-47
2023/03/25 17:11:34;;;;;;;;;;;;;;;;;;5044816;28;20316;-48
2023/03/25 17:14:01;;;;;;;;;;;;;;;;;;5046055;28;19909;-50
2023/03/25 17:16:27;;;;;;;;;;;;;;;;;;5045844;28;19921;-48
2023/03/25 17:18:53;;;;;;;;;;;;;;;;;;5044771;28;20021;-48
2023/03/25 17:21:19;;;;;;;;;;;;;;;;;;5046977;28;20572;-48
2023/03/25 17:23:45;;;;;;;;;;;;;;;;;;5042116;28;19990;-47
2023/03/25 17:26:11;;;;;;;;;;;;;;;;;;5045741;28;19913;-47
2023/03/25 17:28:37;;;;;;;;;;;;;;;;;;5045088;28;19917;-46
2023/03/25 17:31:03;;;;;;;;;;;;;;;;;;5045223;28;19971;-46
2023/03/25 17:33:30;;;;;;;;;;;;;;;;;;5046103;28;19917;-48
2023/03/25 17:35:56;;;;;;;;;;;;;;;;;;5045979;28;19921;-47
2023/03/25 17:38:22;;;;;;;;;;;;;;;;;;5045682;28;19928;-48
2023/03/25 17:40:48;;;;;;;;;;;;;;;;;;5045639;28;19952;-49
2023/03/25 17:43:14;;;;;;;;;;;;;;;;;;5045688;28;19948;-46
2023/03/25 17:45:40;;;;;;;;;;;;;;;;;;5045355;28;19995;-49
2023/03/25 17:48:06;;;;;;;;;;;;;;;;;;5054468;28;19971;-46
2023/03/25 17:50:32;;;;;;;;;;;;;;;;;;5045360;28;19921;-48
2023/03/25 17:52:58;;;;;;;;;;;;;;;;;;5046077;28;19932;-50
2023/03/25 17:55:24;;;;;;;;;;;;;;;;;;5045492;28;19917;-47
2023/03/25 17:57:50;;;;;;;;;;;;;;;;;;5046161;28;19916;-45
2023/03/25 18:00:17;;;;;;;;;;;;;;;;;;5044193;28;19917;-46
2023/03/25 18:02:43;;;;;;;;;;;;;;;;;;5046255;28;19912;-47
2023/03/25 18:05:09;;;;;;;;;;;;;;;;;;5048710;28;19916;-47
2023/03/25 18:07:35;;;;;;;;;;;;;;;;;;5048040;28;19913;-47
2023/03/25 18:10:01;;;;;;;;;;;;;;;;;;5048328;28;20411;-47
2023/03/25 18:12:27;;;;;;;;;;;;;;;;;;5048164;28;19919;-49
2023/03/25 18:14:53;;;;;;;;;;;;;;;;;;5047350;28;19958;-47
2023/03/25 18:17:19;;;;;;;;;;;;;;;;;;5051877;28;19956;-45
2023/03/25 18:19:45;;;;;;;;;;;;;;;;;;5047488;28;20400;-45
2023/03/25 18:22:11;;;;;;;;;;;;;;;;;;5050481;28;19996;-44
2023/03/25 18:24:37;;;;;;;;;;;;;;;;;;5047375;28;20010;-48
2023/03/25 18:27:03;;;;;;;;;;;;;;;;;;5049634;28;20386;-46
2023/03/25 18:29:30;;;;;;;;;;;;;;;;;;5046722;28;19920;-45
2023/03/25 18:31:56;;;;;;;;;;;;;;;;;;5049032;28;19913;-47
2023/03/25 18:34:24;;;;;;;;;;;;;;;;;;5047374;28;19923;-48
2023/03/25 18:36:51;;;;;;;;;;;;;;;;;;5048363;28;19917;-44
2023/03/25 18:39:17;;;;;;;;;;;;;;;;;;5045961;28;20390;-48
2023/03/25 18:41:43;;;;;;;;;;;;;;;;;;5057867;28;19955;-45
2023/03/25 18:44:09;;;;;;;;;;;;;;;;;;5048275;28;19955;-47
2023/03/25 18:46:35;;;;;;;;;;;;;;;;;;5048122;28;19979;-47
2023/03/25 18:49:01;;;;;;;;;;;;;;;;;;5047622;28;19917;-45
2023/03/25 18:51:27;;;;;;;;;;;;;;;;;;5048018;28;20538;-45
2023/03/25 18:53:53;;;;;;;;;;;;;;;;;;5046573;28;19928;-46
2023/03/25 18:56:19;;;;;;;;;;;;;;;;;;5046461;28;19978;-45
2023/03/25 18:58:45;;;;;;;;;;;;;;;;;;5047099;28;19939;-46
2023/03/25 19:01:11;;;;;;;;;;;;;;;;;;5046825;28;19917;-45
2023/03/25 19:03:37;;;;;;;;;;;;;;;;;;5046482;28;19920;-48
2023/03/25 19:06:04;;;;;;;;;;;;;;;;;;5046444;28;19928;-46
2023/03/25 19:08:30;;;;;;;;;;;;;;;;;;5045431;28;19913;-46
2023/03/25 19:10:56;;;;;;;;;;;;;;;;;;5048212;28;20402;-46
2023/03/25 19:13:22;;;;;;;;;;;;;;;;;;5039684;28;19921;-46
2023/03/25 19:15:48;;;;;;;;;;;;;;;;;;5084455;28;19920;-45
2023/03/25 19:18:13;;;;;;;;;;;;;;;;;;5048821;28;19935;-46
2023/03/25 19:20:40;;;;;;;;;;;;;;;;;;5049591;28;19927;-45
2023/03/25 19:23:05;;;;;;;;;;;;;;;;;;5048446;28;19927;-47
2023/03/25 19:25:31;;;;;;;;;;;;;;;;;;5048473;28;20007;-46
2023/03/25 19:27:57;;;;;;;;;;;;;;;;;;5048628;28;19913;-48
2023/03/25 19:30:23;;;;;;;;;;;;;;;;;;5048378;28;19924;-45
2023/03/25 19:32:50;;;;;;;;;;;;;;;;;;5048610;28;20382;-45
2023/03/25 19:35:16;;;;;;;;;;;;;;;;;;5048530;28;19967;-48
2023/03/25 19:37:55;;;;;;;;;;;;;;;;;;5046757;28;19921;-46
2023/03/25 19:40:21;;;;;;;;;;;;;;;;;;5034645;28;20415;-47
2023/03/25 19:42:47;;;;;;;;;;;;;;;;;;5047436;28;20376;-46
2023/03/25 19:45:12;;;;;;;;;;;;;;;;;;5046228;28;19920;-47
2023/03/25 19:47:41;;;;;;;;;;;;;;;;;;5047912;28;19954;-47
2023/03/25 19:50:07;;;;;;;;;;;;;;;;;;5047052;28;19913;-49
2023/03/25 19:52:33;;;;;;;;;;;;;;;;;;5042882;28;19970;-48
2023/03/25 19:54:59;;;;;;;;;;;;;;;;;;5034168;28;19914;-48
2023/03/25 19:57:26;;;;;;;;;;;;;;;;;;5046632;28;20371;-49
2023/03/25 19:59:52;;;;;;;;;;;;;;;;;;5046119;28;19920;-48
2023/03/25 20:02:18;;;;;;;;;;;;;;;;;;5044958;28;20345;-50
2023/03/25 20:04:45;;;;;;;;;;;;;;;;;;5045061;28;19920;-48
2023/03/25 20:07:11;;;;;;;;;;;;;;;;;;5046014;28;19952;-49
2023/03/25 20:09:37;;;;;;;;;;;;;;;;;;5045094;28;19944;-50
2023/03/25 20:12:03;;;;;;;;;;;;;;;;;;5044496;28;19978;-49
2023/03/25 20:14:29;;;;;;;;;;;;;;;;;;5045083;28;19944;-47
2023/03/25 20:16:55;;;;;;;;;;;;;;;;;;5043831;28;19921;-48
2023/03/25 20:19:21;;;;;;;;;;;;;;;;;;5045826;28;20446;-48
2023/03/25 20:21:47;;;;;;;;;;;;;;;;;;5043172;28;19916;-48
2023/03/25 20:24:13;;;;;;;;;;;;;;;;;;5044507;28;20003;-48
2023/03/25 20:26:39;;;;;;;;;;;;;;;;;;5043615;28;19917;-47
2023/03/25 20:29:05;;;;;;;;;;;;;;;;;;5076046;28;20030;-49
2023/03/25 20:31:32;;;;;;;;;;;;;;;;;;5044319;28;19986;-48
2023/03/25 20:33:59;;;;;;;;;;;;;;;;;;5039195;28;19913;-48
2023/03/25 20:36:25;;;;;;;;;;;;;;;;;;5045207;28;19917;-48
2023/03/25 20:38:51;;;;;;;;;;;;;;;;;;5043465;28;19958;-48
2023/03/25 20:41:17;;;;;;;;;;;;;;;;;;5044677;28;19917;-46
2023/03/25 20:43:43;;;;;;;;;;;;;;;;;;5044230;28;19955;-46
2023/03/25 20:46:12;;;;;;;;;;;;;;;;;;5044815;28;19917;-47
2023/03/25 20:48:39;;;;;;;;;;;;;;;;;;5044835;28;19912;-48
2023/03/25 20:51:05;;;;;;;;;;;;;;;;;;5043123;28;20372;-47
2023/03/25 20:53:31;;;;;;;;;;;;;;;;;;5076570;28;19924;-48
2023/03/25 20:55:57;;;;;;;;;;;;;;;;;;5044462;28;19921;-48
2023/03/25 20:58:22;;;;;;;;;;;;;;;;;;5043568;28;20308;-48
2023/03/25 21:00:48;;;;;;;;;;;;;;;;;;5042113;28;19920;-49
2023/03/25 21:03:18;;;;;;;;;;;;;;;;;;5043875;28;19920;-50
2023/03/25 21:05:45;;;;;;;;;;;;;;;;;;5044433;28;19913;-48
2023/03/25 21:08:12;;;;;;;;;;;;;;;;;;5044484;28;19976;-47
2023/03/25 21:10:39;;;;;;;;;;;;;;;;;;5076762;28;19935;-44
2023/03/25 21:13:05;;;;;;;;;;;;;;;;;;5044078;28;20175;-47
2023/03/25 21:15:31;;;;;;;;;;;;;;;;;;5041145;28;19924;-48
2023/03/25 21:17:57;;;;;;;;;;;;;;;;;;5043059;28;20043;-45
2023/03/25 21:20:25;;;;;;;;;;;;;;;;;;5040252;28;19966;-48
2023/03/25 21:22:55;;;;;;;;;;;;;;;;;;5040694;28;19909;-45
2023/03/25 21:25:21;;;;;;;;;;;;;;;;;;5044685;28;20383;-47
2023/03/25 21:27:47;;;;;;;;;;;;;;;;;;5042366;28;19913;-46
2023/03/25 21:30:13;;;;;;;;;;;;;;;;;;5043655;28;19916;-46
2023/03/25 21:32:39;;;;;;;;;;;;;;;;;;5044099;28;19919;-45
2023/03/25 21:35:06;;;;;;;;;;;;;;;;;;5076520;28;20003;-46
2023/03/25 21:37:36;;;;;;;;;;;;;;;;;;5043383;28;19916;-45
2023/03/25 21:40:03;;;;;;;;;;;;;;;;;;5046619;28;19924;-47
2023/03/25 21:42:29;;;;;;;;;;;;;;;;;;5048956;28;20391;-48
2023/03/25 21:44:57;;;;;;;;;;;;;;;;;;5047515;28;20218;-46